Time;durP1;ratioP1;P1;durP2;ratioP2;P2;SDS_P1;SDS_P2;PMS_P1;PMS_P2;Temp;Humidity;BMP_temperature;BMP_pressure;BME280_temperature;BME280_humidity;BME280_pressure;Samples;Min_cycle;Max_cycle;Signal;HPM_P1;HPM_P2
2023/10/04 00:01:41;;;;;;;14.80;4.88;;;12.70;99.90;;;;;;5051584;28;20031;-56
2023/10/04 00:04:07;;;;;;;12.07;4.78;;;12.70;99.90;;;;;;5051855;28;20013;-57
2023/10/04 00:06:33;;;;;;;12.20;4.75;;;12.70;99.90;;;;;;5051258;28;20021;-57
2023/10/04 00:08:59;;;;;;;12.20;6.00;;;12.70;99.90;;;;;;5050011;28;20524;-56
2023/10/04 00:11:26;;;;;;;9.63;5.72;;;12.70;99.90;;;;;;5051304;28;20269;-57
2023/10/04 00:13:52;;;;;;;9.55;5.20;;;12.70;99.90;;;;;;5051544;28;20017;-57
2023/10/04 00:16:18;;;;;;;8.20;4.53;;;12.70;99.90;;;;;;5039241;28;20036;-57
2023/10/04 00:18:44;;;;;;;10.60;5.65;;;12.70;99.90;;;;;;5051970;28;20310;-57
2023/10/04 00:21:10;;;;;;;12.10;5.50;;;12.70;99.90;;;;;;5050055;28;20095;-57
2023/10/04 00:23:36;;;;;;;13.30;6.25;;;12.70;99.90;;;;;;5050143;28;20067;-56
2023/10/04 00:26:02;;;;;;;12.07;5.95;;;12.70;99.90;;;;;;5050687;28;20056;-57
2023/10/04 00:28:29;;;;;;;17.42;6.35;;;12.70;99.90;;;;;;5051746;28;20414;-56
2023/10/04 00:30:54;;;;;;;14.15;6.28;;;12.70;99.90;;;;;;5053556;28;20104;-57
2023/10/04 00:33:20;;;;;;;14.52;6.70;;;12.70;99.90;;;;;;5052686;28;20029;-57
2023/10/04 00:35:46;;;;;;;18.30;6.95;;;12.70;99.90;;;;;;5051466;28;20092;-57
2023/10/04 00:38:14;;;;;;;10.45;6.43;;;12.70;99.90;;;;;;5052139;28;20013;-57
2023/10/04 00:40:41;;;;;;;14.18;7.25;;;12.70;99.90;;;;;;5051998;28;20025;-56
2023/10/04 00:43:11;;;;;;;12.75;7.15;;;12.70;99.90;;;;;;5051392;28;20064;-56
2023/10/04 00:45:37;;;;;;;14.98;7.40;;;12.70;99.90;;;;;;5050296;28;20057;-57
2023/10/04 00:48:13;;;;;;;11.35;7.22;;;12.70;99.90;;;;;;5050031;28;20581;-56
2023/10/04 00:50:39;;;;;;;15.80;8.13;;;12.70;99.90;;;;;;5049750;28;20407;-56
2023/10/04 00:53:10;;;;;;;15.30;8.20;;;12.70;99.90;;;;;;5031446;28;20470;-57
2023/10/04 00:55:40;;;;;;;18.38;8.18;;;12.70;99.90;;;;;;5033386;28;20021;-56
2023/10/04 00:58:07;;;;;;;23.40;8.35;;;12.80;99.90;;;;;;5045997;28;20488;-57
2023/10/04 01:00:33;;;;;;;17.42;7.03;;;12.80;99.90;;;;;;5040879;28;20440;-57
2023/10/04 01:02:59;;;;;;;16.15;8.20;;;12.80;99.90;;;;;;5038321;28;20017;-56
2023/10/04 01:05:26;;;;;;;13.45;7.28;;;12.70;99.90;;;;;;5032088;28;20382;-57
2023/10/04 01:07:57;;;;;;;15.13;7.95;;;12.80;99.90;;;;;;5039926;28;20045;-56
2023/10/04 01:10:27;;;;;;;20.25;8.07;;;12.70;99.90;;;;;;5046816;28;20375;-56
2023/10/04 01:12:53;;;;;;;17.33;8.25;;;12.80;99.90;;;;;;5031563;28;20037;-57
2023/10/04 01:15:36;;;;;;;14.88;8.52;;;12.80;99.90;;;;;;5032120;28;20025;-57
2023/10/04 01:18:04;;;;;;;13.18;7.35;;;12.80;99.90;;;;;;5032099;28;20389;-57
2023/10/04 01:20:33;;;;;;;19.45;7.43;;;12.70;99.90;;;;;;5030737;28;20021;-57
2023/10/04 01:23:00;;;;;;;17.50;7.72;;;12.80;99.90;;;;;;5031441;28;20017;-57
2023/10/04 01:25:33;;;;;;;15.57;6.88;;;12.70;99.90;;;;;;5030750;28;20021;-56
2023/10/04 01:28:01;;;;;;;13.48;6.88;;;12.80;99.90;;;;;;5046463;28;20017;-57
2023/10/04 01:30:28;;;;;;;16.83;7.53;;;12.80;99.90;;;;;;5037031;28;20025;-57
2023/10/04 01:32:54;;;;;;;16.88;8.02;;;12.80;99.90;;;;;;5030269;28;20018;-57
2023/10/04 01:35:24;;;;;;;16.35;7.57;;;12.80;99.90;;;;;;5032110;28;20014;-57
2023/10/04 01:37:53;;;;;;;14.15;7.20;;;12.80;99.90;;;;;;5038913;28;20110;-57
2023/10/04 01:40:25;;;;;;;15.20;7.30;;;12.80;99.90;;;;;;5041783;28;20043;-55
2023/10/04 01:42:55;;;;;;;19.08;7.70;;;12.70;99.90;;;;;;5037018;28;20055;-55
2023/10/04 01:45:21;;;;;;;14.95;7.53;;;12.70;99.90;;;;;;5037851;28;20020;-56
2023/10/04 01:47:47;;;;;;;14.15;7.13;;;12.70;99.90;;;;;;5038797;28;20411;-56
2023/10/04 01:50:13;;;;;;;12.38;6.53;;;12.80;99.90;;;;;;5036591;28;20276;-55
2023/10/04 01:52:38;;;;;;;15.90;6.97;;;12.70;99.90;;;;;;5035447;28;20112;-55
2023/10/04 01:55:10;;;;;;;12.77;6.80;;;12.70;99.90;;;;;;5035842;28;20025;-55
2023/10/04 01:57:38;;;;;;;15.38;6.75;;;12.70;99.90;;;;;;5036701;28;20033;-55
2023/10/04 02:00:04;;;;;;;11.77;5.70;;;12.70;99.90;;;;;;5033227;28;20127;-55
2023/10/04 02:02:31;;;;;;;17.63;6.60;;;12.80;99.90;;;;;;5037959;28;20052;-55
2023/10/04 02:04:56;;;;;;;10.70;6.63;;;12.80;99.90;;;;;;5035347;28;20053;-56
2023/10/04 02:07:23;;;;;;;16.90;6.03;;;12.80;99.90;;;;;;5041397;28;20060;-57
2023/10/04 02:09:49;;;;;;;12.65;6.38;;;12.70;99.90;;;;;;5035178;28;20055;-56
2023/10/04 02:12:18;;;;;;;15.73;5.90;;;12.80;99.90;;;;;;5034995;28;20113;-56
2023/10/04 02:14:46;;;;;;;10.68;5.50;;;12.80;99.90;;;;;;5034440;28;20429;-56
2023/10/04 02:17:16;;;;;;;12.88;5.50;;;12.80;99.90;;;;;;5035205;28;20036;-56
2023/10/04 02:19:45;;;;;;;12.50;5.00;;;12.80;99.90;;;;;;5041662;28;20022;-55
2023/10/04 02:22:11;;;;;;;13.80;5.20;;;12.70;99.90;;;;;;5041919;28;20519;-57
2023/10/04 02:24:39;;;;;;;11.52;5.22;;;12.70;99.90;;;;;;5038739;28;20029;-56
2023/10/04 02:27:07;;;;;;;15.57;4.97;;;12.70;99.90;;;;;;5031840;28;20433;-57
2023/10/04 02:29:38;;;;;;;12.05;5.22;;;12.70;99.90;;;;;;5038898;28;20037;-57
2023/10/04 02:32:08;;;;;;;12.52;5.20;;;12.70;99.90;;;;;;5031493;28;20014;-56
2023/10/04 02:34:35;;;;;;;16.08;5.50;;;12.70;99.90;;;;;;5039112;28;20045;-57
2023/10/04 02:37:01;;;;;;;13.82;5.00;;;12.70;99.90;;;;;;5042201;28;20395;-57
2023/10/04 02:39:27;;;;;;;12.88;4.95;;;12.70;99.90;;;;;;5042340;28;20033;-56
2023/10/04 02:41:53;;;;;;;8.93;4.70;;;12.80;99.90;;;;;;5032339;28;20033;-57
2023/10/04 02:44:19;;;;;;;8.57;4.05;;;12.80;99.90;;;;;;5036989;28;20029;-57
2023/10/04 02:46:47;;;;;;;10.43;4.55;;;12.80;99.90;;;;;;5037791;28;20028;-56
2023/10/04 02:49:13;;;;;;;11.60;4.68;;;12.80;99.90;;;;;;5041700;28;20280;-57
2023/10/04 02:51:38;;;;;;;7.05;3.88;;;12.90;99.90;;;;;;5035484;28;20046;-57
2023/10/04 02:54:06;;;;;;;13.93;5.07;;;12.90;99.90;;;;;;5038352;28;20021;-57
2023/10/04 02:56:41;;;;;;;8.52;4.65;;;12.90;99.90;;;;;;5033030;28;20025;-57
2023/10/04 02:59:07;;;;;;;11.85;4.03;;;12.90;99.90;;;;;;5039364;28;20021;-57
2023/10/04 03:01:32;;;;;;;9.50;3.90;;;13.00;99.90;;;;;;5031559;28;20034;-57
2023/10/04 03:03:58;;;;;;;9.50;3.97;;;13.00;99.90;;;;;;5038706;28;20021;-58
2023/10/04 03:06:24;;;;;;;8.93;3.83;;;13.00;99.90;;;;;;5032189;28;20029;-57
2023/10/04 03:08:55;;;;;;;11.68;4.38;;;13.10;99.90;;;;;;5041471;28;20079;-57
2023/10/04 03:11:21;;;;;;;12.18;3.90;;;13.10;99.90;;;;;;5038720;28;20024;-57
2023/10/04 03:13:49;;;;;;;9.48;4.40;;;13.10;99.90;;;;;;5033237;28;20021;-58
2023/10/04 03:16:15;;;;;;;9.43;4.40;;;13.10;99.90;;;;;;5044239;28;20441;-57
2023/10/04 03:18:41;;;;;;;9.57;4.28;;;13.10;99.90;;;;;;5042083;28;20491;-57
2023/10/04 03:23:33;;;;;;;11.02;4.70;;;13.10;99.90;;;;;;5032736;28;20025;-57
2023/10/04 03:26:01;;;;;;;18.42;5.18;;;13.10;99.90;;;;;;5038052;28;20455;-57
2023/10/04 03:28:27;;;;;;;11.07;5.35;;;13.10;99.90;;;;;;5038585;28;20083;-57
2023/10/04 03:30:53;;;;;;;15.82;4.80;;;13.10;99.90;;;;;;5032857;28;20033;-57
2023/10/04 03:33:20;;;;;;;15.48;4.30;;;13.10;99.90;;;;;;5031291;28;20040;-57
2023/10/04 03:35:47;;;;;;;11.43;4.30;;;13.10;99.90;;;;;;5039464;28;20417;-58
2023/10/04 03:38:12;;;;;;;15.95;5.22;;;13.10;99.90;;;;;;5038784;28;20041;-57
2023/10/04 03:40:39;;;;;;;17.13;5.65;;;13.10;99.90;;;;;;5033527;28;20068;-58
2023/10/04 03:43:08;;;;;;;13.20;4.78;;;13.10;99.90;;;;;;5043360;28;20378;-58
2023/10/04 03:45:41;;;;;;;11.77;4.43;;;13.10;99.90;;;;;;5035619;28;20514;-57
2023/10/04 03:48:15;;;;;;;11.20;4.35;;;13.00;99.90;;;;;;5033283;28;20022;-58
2023/10/04 03:50:45;;;;;;;14.48;5.05;;;13.00;99.90;;;;;;5039081;28;20036;-58
2023/10/04 03:53:10;;;;;;;15.50;4.68;;;13.00;99.90;;;;;;5031158;28;20037;-58
2023/10/04 03:55:36;;;;;;;18.40;5.65;;;13.10;99.90;;;;;;5032403;28;20140;-57
2023/10/04 03:58:04;;;;;;;14.70;5.05;;;13.10;99.90;;;;;;5032250;28;20174;-57
2023/10/04 04:00:33;;;;;;;12.68;5.50;;;13.10;99.90;;;;;;5039427;28;20131;-57
2023/10/04 04:02:59;;;;;;;10.87;5.03;;;13.10;99.90;;;;;;5035465;28;20113;-57
2023/10/04 04:05:25;;;;;;;11.65;5.93;;;13.10;99.90;;;;;;5045292;28;20100;-56
2023/10/04 04:07:52;;;;;;;14.10;4.90;;;13.10;99.90;;;;;;5040608;28;20078;-56
2023/10/04 04:10:19;;;;;;;12.48;5.50;;;13.10;99.90;;;;;;5041639;28;20594;-57
2023/10/04 04:12:46;;;;;;;11.73;5.05;;;13.10;99.90;;;;;;5034060;28;20053;-56
2023/10/04 04:15:14;;;;;;;10.38;5.10;;;13.10;99.90;;;;;;5038645;28;20100;-57
2023/10/04 04:17:41;;;;;;;8.52;4.35;;;13.10;99.90;;;;;;5036457;28;20538;-57
2023/10/04 04:20:14;;;;;;;18.02;6.20;;;13.10;99.90;;;;;;5033020;28;20656;-57
2023/10/04 04:22:42;;;;;;;11.98;5.30;;;13.10;99.90;;;;;;5040414;28;20037;-57
2023/10/04 04:25:14;;;;;;;15.65;5.40;;;13.10;99.90;;;;;;5035255;28;20538;-56
2023/10/04 04:27:43;;;;;;;17.63;6.05;;;13.10;99.90;;;;;;5040752;28;20491;-57
2023/10/04 04:30:16;;;;;;;12.55;5.78;;;13.10;99.90;;;;;;5031241;28;20491;-56
2023/10/04 04:33:03;;;;;;;12.35;4.72;;;13.10;99.90;;;;;;5040418;28;20033;-57
2023/10/04 04:38:09;;;;;;;10.48;5.57;;;13.00;99.90;;;;;;5042772;28;20037;-57
2023/10/04 04:40:35;;;;;;;12.50;5.97;;;13.00;99.90;;;;;;5041995;28;20045;-57
2023/10/04 04:45:51;;;;;;;12.30;5.15;;;13.00;99.90;;;;;;5039362;28;20036;-57
2023/10/04 04:48:29;;;;;;;16.30;5.93;;;12.90;99.90;;;;;;5039596;28;20482;-57
2023/10/04 04:51:10;;;;;;;10.82;5.75;;;12.90;99.90;;;;;;5036398;28;20025;-57
2023/10/04 04:53:40;;;;;;;13.10;5.68;;;12.90;99.90;;;;;;5037792;28;20032;-57
2023/10/04 04:56:12;;;;;;;9.43;5.68;;;12.90;99.90;;;;;;5035999;28;20248;-57
2023/10/04 04:58:38;;;;;;;13.68;5.70;;;12.80;99.90;;;;;;5037992;28;20325;-56
2023/10/04 05:01:08;;;;;;;14.50;6.18;;;12.90;99.90;;;;;;5039286;28;20082;-57
2023/10/04 05:03:34;;;;;;;12.02;4.88;;;12.80;99.90;;;;;;5043999;28;20018;-57
2023/10/04 05:06:00;;;;;;;16.10;6.88;;;12.80;99.90;;;;;;5042765;28;20025;-57
2023/10/04 05:08:25;;;;;;;14.68;5.65;;;12.80;99.90;;;;;;5042650;28;20025;-57
2023/10/04 05:10:54;;;;;;;12.85;5.30;;;12.80;99.90;;;;;;5038106;28;20063;-57
2023/10/04 05:13:21;;;;;;;15.00;5.82;;;12.80;99.90;;;;;;5042940;28;20384;-58
2023/10/04 05:15:49;;;;;;;13.23;5.60;;;12.80;99.90;;;;;;5044650;28;20013;-57
2023/10/04 05:18:16;;;;;;;12.20;5.95;;;12.80;99.90;;;;;;5036311;28;20026;-57
2023/10/04 05:20:51;;;;;;;14.82;6.43;;;12.80;99.90;;;;;;5043766;28;20548;-57
2023/10/04 05:23:18;;;;;;;13.45;6.28;;;12.80;99.90;;;;;;5034033;28;20498;-57
2023/10/04 05:25:43;;;;;;;14.63;6.50;;;12.80;99.90;;;;;;5042010;28;20386;-56
2023/10/04 05:28:11;;;;;;;17.63;6.38;;;12.70;99.90;;;;;;5041060;28;20029;-57
2023/10/04 05:30:38;;;;;;;15.85;6.22;;;12.70;99.90;;;;;;5049136;28;20040;-56
2023/10/04 05:33:04;;;;;;;13.48;6.80;;;12.70;99.90;;;;;;5042358;28;20112;-57
2023/10/04 05:35:29;;;;;;;10.90;5.75;;;12.70;99.90;;;;;;5045200;28;20025;-57
2023/10/04 05:37:55;;;;;;;16.60;6.55;;;12.70;99.90;;;;;;5035452;28;20037;-57
2023/10/04 05:40:27;;;;;;;17.33;6.78;;;12.60;99.90;;;;;;5035955;28;20403;-57
2023/10/04 05:42:53;;;;;;;12.55;6.05;;;12.60;99.90;;;;;;5035170;28;20025;-58
2023/10/04 05:45:20;;;;;;;14.88;6.90;;;12.70;99.90;;;;;;5038812;28;20112;-57
2023/10/04 05:47:48;;;;;;;12.40;6.25;;;12.70;99.90;;;;;;5039658;28;20025;-58
2023/10/04 05:50:17;;;;;;;16.55;6.07;;;12.70;99.90;;;;;;5038461;28;20034;-57
2023/10/04 05:52:46;;;;;;;11.02;5.82;;;12.70;99.90;;;;;;5043962;28;20411;-58
2023/10/04 05:55:11;;;;;;;19.23;6.72;;;12.70;99.90;;;;;;5036157;28;20045;-57
2023/10/04 05:57:37;;;;;;;16.27;6.22;;;12.70;99.90;;;;;;5039750;28;20067;-57
2023/10/04 06:00:21;;;;;;;17.73;6.68;;;12.70;99.90;;;;;;5041405;28;20064;-57
2023/10/04 06:02:51;;;;;;;14.18;6.30;;;12.70;99.90;;;;;;5037772;28;20017;-58
2023/10/04 06:05:19;;;;;;;9.20;4.77;;;12.80;99.90;;;;;;5039068;28;20017;-58
2023/10/04 06:07:44;;;;;;;14.00;6.15;;;12.80;99.90;;;;;;5038025;28;20115;-57
2023/10/04 06:10:12;;;;;;;17.40;6.60;;;12.80;99.90;;;;;;5037357;28;20541;-57
2023/10/04 06:12:39;;;;;;;9.57;5.18;;;12.90;99.90;;;;;;5037507;28;20017;-58
2023/10/04 06:15:10;;;;;;;14.57;7.93;;;12.90;99.90;;;;;;5035282;28;20028;-58
2023/10/04 06:17:42;;;;;;;;;;;12.90;99.90;;;;;;5040393;28;20030;-58
2023/10/04 06:20:28;;;;;;;19.83;6.40;;;12.90;99.90;;;;;;5040794;28;19971;-58
2023/10/04 06:23:05;;;;;;;19.58;6.47;;;12.90;99.90;;;;;;5039911;28;20320;-58
2023/10/04 06:25:31;;;;;;;9.80;6.20;;;12.90;99.90;;;;;;5035638;28;20090;-58
2023/10/04 06:27:58;;;;;;;13.45;6.82;;;13.00;99.90;;;;;;5041887;28;20111;-57
2023/10/04 06:30:26;;;;;;;16.40;7.35;;;13.00;99.90;;;;;;5038574;28;20065;-57
2023/10/04 06:32:56;;;;;;;13.32;6.88;;;13.00;99.90;;;;;;5038054;28;20096;-57
2023/10/04 06:35:24;;;;;;;17.13;6.72;;;13.10;99.90;;;;;;5036853;28;20029;-58
2023/10/04 06:37:53;;;;;;;20.20;8.13;;;13.10;99.90;;;;;;5036204;28;20053;-57
2023/10/04 06:40:20;;;;;;;15.68;7.47;;;13.10;99.90;;;;;;5036245;28;20052;-58
2023/10/04 06:42:48;;;;;;;13.75;7.97;;;13.10;99.90;;;;;;5037561;28;20032;-58
2023/10/04 06:45:15;;;;;;;16.48;8.00;;;13.10;99.90;;;;;;5040903;28;20075;-57
2023/10/04 06:47:42;;;;;;;17.92;7.72;;;13.10;99.90;;;;;;5042384;28;20057;-57
2023/10/04 06:50:07;;;;;;;15.10;8.35;;;13.10;99.90;;;;;;5034136;28;20506;-58
2023/10/04 06:52:35;;;;;;;16.17;7.78;;;13.10;99.90;;;;;;5038641;28;20025;-57
2023/10/04 06:55:01;;;;;;;18.85;8.10;;;13.10;99.90;;;;;;5037065;28;20154;-58
2023/10/04 06:57:27;;;;;;;19.50;9.60;;;13.10;99.90;;;;;;5037626;28;20026;-57
2023/10/04 06:59:53;;;;;;;16.27;7.75;;;13.10;99.90;;;;;;5039668;28;20475;-58
2023/10/04 07:02:19;;;;;;;19.90;8.43;;;13.10;99.90;;;;;;5044436;28;20458;-57
2023/10/04 07:04:44;;;;;;;28.13;9.27;;;13.10;99.90;;;;;;5039082;28;20044;-58
2023/10/04 07:07:10;;;;;;;16.83;8.50;;;13.10;99.90;;;;;;5044121;28;20036;-58
2023/10/04 07:09:35;;;;;;;14.68;7.88;;;13.20;99.90;;;;;;5036987;28;20057;-58
2023/10/04 07:12:04;;;;;;;15.75;8.10;;;13.30;99.90;;;;;;5038161;28;20526;-57
2023/10/04 07:14:29;;;;;;;20.45;8.25;;;13.40;99.90;;;;;;5036993;28;20143;-58
2023/10/04 07:16:55;;;;;;;21.10;9.02;;;13.50;99.90;;;;;;5039285;28;20578;-57
2023/10/04 07:19:20;;;;;;;20.00;8.38;;;13.60;99.90;;;;;;5033295;28;20027;-57
2023/10/04 07:21:46;;;;;;;19.27;8.13;;;13.70;99.90;;;;;;5035861;28;20029;-58
2023/10/04 07:24:11;;;;;;;12.52;7.88;;;13.70;99.90;;;;;;5037197;28;20380;-58
2023/10/04 07:26:37;;;;;;;16.42;8.50;;;13.80;99.90;;;;;;5043038;28;20091;-57
2023/10/04 07:29:03;;;;;;;13.68;7.93;;;13.90;99.90;;;;;;5039818;28;20025;-59
2023/10/04 07:31:28;;;;;;;20.73;8.55;;;13.90;99.90;;;;;;5044316;28;20029;-58
2023/10/04 07:33:54;;;;;;;17.48;8.10;;;14.00;99.90;;;;;;5038198;28;20116;-57
2023/10/04 07:36:19;;;;;;;12.70;7.63;;;14.00;99.90;;;;;;5034765;28;20108;-58
2023/10/04 07:38:46;;;;;;;16.92;8.57;;;14.00;99.90;;;;;;5038865;28;20441;-56
2023/10/04 07:41:11;;;;;;;17.58;8.27;;;14.00;99.90;;;;;;5043839;28;20375;-57
2023/10/04 07:43:37;;;;;;;15.73;7.28;;;14.10;99.90;;;;;;5039618;28;20117;-57
2023/10/04 07:46:04;;;;;;;12.82;7.28;;;14.20;99.90;;;;;;5043478;28;20025;-58
2023/10/04 07:48:29;;;;;;;17.75;7.55;;;14.30;99.90;;;;;;5041143;28;20060;-58
2023/10/04 07:50:55;;;;;;;18.98;7.47;;;14.50;99.90;;;;;;5033946;28;20017;-58
2023/10/04 07:53:21;;;;;;;20.73;8.15;;;14.60;99.90;;;;;;5040890;28;20078;-57
2023/10/04 07:55:49;;;;;;;13.05;6.97;;;14.60;99.90;;;;;;5039954;28;20029;-58
2023/10/04 07:58:14;;;;;;;18.73;8.00;;;14.50;99.90;;;;;;5036260;28;20033;-57
2023/10/04 08:00:41;;;;;;;15.65;7.72;;;14.50;99.90;;;;;;5034600;28;20399;-58
2023/10/04 08:03:08;;;;;;;15.65;7.30;;;14.50;99.90;;;;;;5041557;28;20020;-58
2023/10/04 08:05:34;;;;;;;15.50;7.30;;;14.50;99.90;;;;;;5037841;28;20081;-58
2023/10/04 08:08:04;;;;;;;17.58;6.72;;;14.60;99.90;;;;;;5038367;28;20033;-58
2023/10/04 08:10:36;;;;;;;14.38;7.15;;;14.70;99.90;;;;;;5036336;28;20060;-58
2023/10/04 08:13:03;;;;;;;11.70;6.63;;;14.70;99.90;;;;;;5041132;28;20387;-58
2023/10/04 08:15:31;;;;;;;10.95;6.25;;;14.80;99.90;;;;;;5047256;28;20032;-58
2023/10/04 08:17:58;;;;;;;18.63;6.03;;;15.00;99.90;;;;;;5047646;28;20021;-58
2023/10/04 08:20:28;;;;;;;13.18;6.22;;;15.00;99.90;;;;;;5045038;28;20033;-58
2023/10/04 08:22:54;;;;;;;21.17;7.43;;;15.10;99.90;;;;;;5044442;28;20033;-58
2023/10/04 08:25:20;;;;;;;9.13;5.90;;;15.20;99.90;;;;;;5041210;28;20076;-57
2023/10/04 08:27:46;;;;;;;19.65;6.68;;;15.20;99.90;;;;;;5044695;28;20441;-58
2023/10/04 08:30:14;;;;;;;13.50;5.72;;;15.40;99.90;;;;;;5041278;28;20440;-58
2023/10/04 08:32:41;;;;;;;16.50;6.85;;;15.40;99.90;;;;;;5046786;28;20032;-58
2023/10/04 08:35:08;;;;;;;16.88;6.40;;;15.50;99.90;;;;;;5039646;28;20559;-57
2023/10/04 08:37:34;;;;;;;17.60;5.72;;;15.60;99.90;;;;;;5036786;28;20053;-57
2023/10/04 08:39:59;;;;;;;18.85;5.95;;;15.60;99.90;;;;;;5044032;28;20104;-58
2023/10/04 08:42:25;;;;;;;16.60;5.13;;;15.80;99.90;;;;;;5043268;28;20044;-57
2023/10/04 08:44:52;;;;;;;8.68;4.63;;;16.70;99.90;;;;;;5039522;28;20096;-57
2023/10/04 08:47:19;;;;;;;19.70;5.40;;;16.80;99.90;;;;;;5045020;28;20024;-57
2023/10/04 08:49:53;;;;;;;15.35;5.88;;;16.90;99.90;;;;;;5051608;28;20589;-58
2023/10/04 08:52:36;;;;;;;15.15;6.10;;;17.50;99.90;;;;;;5041345;28;20033;-57
2023/10/04 08:55:07;;;;;;;13.15;5.68;;;17.90;99.90;;;;;;5039277;28;20287;-58
2023/10/04 08:57:39;;;;;;;12.23;4.90;;;18.10;99.90;;;;;;5040036;28;20034;-58
2023/10/04 09:00:23;;;;;;;8.63;4.10;;;18.30;99.90;;;;;;5045165;28;20036;-58
2023/10/04 09:02:50;;;;;;;15.85;4.93;;;18.90;99.90;;;;;;5040968;28;20039;-56
2023/10/04 09:05:23;;;;;;;12.68;5.05;;;18.90;99.90;;;;;;5047941;28;20031;-56
2023/10/04 09:07:50;;;;;;;18.60;5.47;;;19.00;99.90;;;;;;5046964;28;20021;-57
2023/10/04 09:10:18;;;;;;;12.00;4.93;;;18.70;99.90;;;;;;5042454;28;20115;-57
2023/10/04 09:12:44;;;;;;;11.38;4.95;;;18.90;99.90;;;;;;5048687;28;20032;-57
2023/10/04 09:15:21;;;;;;;10.20;4.55;;;19.40;99.90;;;;;;5046105;28;20025;-57
2023/10/04 09:17:47;;;;;;;13.80;4.93;;;19.70;99.90;;;;;;5043191;28;20029;-57
2023/10/04 09:20:19;;;;;;;11.23;4.55;;;20.10;99.90;;;;;;5050859;28;20025;-57
2023/10/04 09:22:45;;;;;;;11.40;4.55;;;19.90;99.80;;;;;;5040662;28;20093;-57
2023/10/04 09:25:11;;;;;;;12.55;4.85;;;19.50;99.90;;;;;;5043004;28;20309;-56
2023/10/04 09:27:41;;;;;;;13.43;4.85;;;19.10;99.90;;;;;;5039006;28;20102;-56
2023/10/04 09:30:23;;;;;;;12.27;5.22;;;19.40;99.90;;;;;;5044017;28;20179;-56
2023/10/04 09:32:51;;;;;;;15.05;4.90;;;19.50;99.90;;;;;;5045633;28;20029;-56
2023/10/04 09:35:18;;;;;;;15.73;4.38;;;20.10;99.80;;;;;;5043922;28;20505;-57
2023/10/04 09:37:49;;;;;;;11.70;4.97;;;21.00;98.60;;;;;;5042850;28;20030;-57
2023/10/04 09:40:17;;;;;;;9.50;4.22;;;22.10;95.60;;;;;;5042676;28;20029;-58
2023/10/04 09:42:53;;;;;;;11.13;4.15;;;22.40;94.60;;;;;;5046788;28;20021;-59
2023/10/04 09:45:26;;;;;;;12.07;4.43;;;23.20;93.80;;;;;;5042040;28;20024;-59
2023/10/04 09:47:53;;;;;;;10.77;4.43;;;23.60;92.20;;;;;;5039132;28;20521;-56
2023/10/04 09:50:26;;;;;;;7.72;3.65;;;23.60;92.40;;;;;;5040829;28;20583;-56
2023/10/04 09:52:53;;;;;;;8.00;3.85;;;24.30;90.30;;;;;;5039782;28;20032;-58
2023/10/04 09:55:25;;;;;;;9.50;3.90;;;23.60;91.20;;;;;;5045109;28;20024;-58
2023/10/04 09:57:54;;;;;;;6.18;3.83;;;22.90;91.70;;;;;;5032728;28;20048;-58
2023/10/04 10:00:22;;;;;;;8.65;3.40;;;22.10;92.50;;;;;;5046211;28;20082;-58
2023/10/04 10:03:00;;;;;;;10.80;3.95;;;21.60;93.80;;;;;;5043810;28;20028;-58
2023/10/04 10:05:34;;;;;;;11.85;4.15;;;22.30;93.10;;;;;;5046497;28;20033;-58
2023/10/04 10:08:06;;;;;;;10.30;4.05;;;21.90;92.40;;;;;;5041507;28;20719;-57
2023/10/04 10:10:34;;;;;;;9.95;3.88;;;21.40;93.90;;;;;;5045893;28;20487;-57
2023/10/04 10:13:01;;;;;;;16.10;4.72;;;20.40;94.20;;;;;;5045469;28;20078;-58
2023/10/04 10:15:27;;;;;;;10.25;4.25;;;19.70;95.50;;;;;;5036920;28;20133;-58
2023/10/04 10:17:53;;;;;;;7.20;3.92;;;19.20;96.70;;;;;;5042404;28;20017;-58
2023/10/04 10:20:19;;;;;;;10.93;4.72;;;18.50;98.00;;;;;;5040945;28;20024;-57
2023/10/04 10:23:00;;;;;;;11.10;4.60;;;18.00;98.90;;;;;;5047603;28;20110;-57
2023/10/04 10:25:26;;;;;;;;;;;17.70;99.70;;;;;;5042484;28;20033;-56
2023/10/04 10:27:56;;;;;;;13.18;4.68;;;17.50;99.90;;;;;;5043403;28;20015;-56
2023/10/04 10:30:23;;;;;;;14.30;4.38;;;17.50;99.90;;;;;;5047159;28;20021;-57
2023/10/04 10:32:52;;;;;;;14.40;4.75;;;17.30;99.90;;;;;;5044204;28;20028;-57
2023/10/04 10:35:48;;;;;;;23.23;5.40;;;17.20;99.90;;;;;;5041138;28;20521;-57
2023/10/04 10:38:39;;;;;;;15.07;5.40;;;17.10;99.90;;;;;;5041531;28;20025;-56
2023/10/04 10:41:05;;;;;;;;;;;17.20;99.90;;;;;;5041165;28;20407;-57
2023/10/04 10:43:31;;;;;;;13.25;5.07;;;17.20;99.90;;;;;;5046584;28;19991;-57
2023/10/04 10:45:57;;;;;;;16.42;5.88;;;17.60;99.90;;;;;;5044566;28;20100;-57
2023/10/04 10:48:34;;;;;;;9.45;4.47;;;17.90;99.90;;;;;;5042732;28;20067;-57
2023/10/04 10:51:00;;;;;;;10.18;4.75;;;17.90;99.90;;;;;;5042564;28;20056;-57
2023/10/04 10:53:26;;;;;;;11.88;4.95;;;17.70;99.90;;;;;;5042638;28;20017;-57
2023/10/04 10:55:51;;;;;;;9.05;4.18;;;17.60;99.90;;;;;;5045339;28;20079;-56
2023/10/04 10:58:17;;;;;;;12.30;4.60;;;18.20;99.90;;;;;;5045334;28;20486;-57
2023/10/04 11:00:43;;;;;;;11.60;4.20;;;19.50;99.80;;;;;;5045684;28;20049;-57
2023/10/04 11:03:09;;;;;;;11.02;4.57;;;19.70;97.80;;;;;;5042635;28;20013;-57
2023/10/04 11:05:35;;;;;;;12.20;3.85;;;19.50;97.60;;;;;;5040995;28;20025;-56
2023/10/04 11:08:06;;;;;;;9.05;3.70;;;20.00;96.90;;;;;;5044487;28;20052;-56
2023/10/04 11:10:34;;;;;;;13.20;4.07;;;20.90;95.10;;;;;;5045394;28;20136;-56
2023/10/04 11:13:03;;;;;;;13.82;4.47;;;20.70;95.00;;;;;;5044748;28;20083;-57
2023/10/04 11:15:29;;;;;;;8.32;3.72;;;20.40;94.60;;;;;;5047667;28;20045;-56
2023/10/04 11:17:55;;;;;;;13.15;4.30;;;20.10;95.30;;;;;;5045386;28;20437;-56
2023/10/04 11:20:21;;;;;;;9.65;3.58;;;20.20;94.90;;;;;;5049766;28;20024;-57
2023/10/04 11:22:49;;;;;;;8.30;3.70;;;21.30;94.50;;;;;;5044209;28;20400;-56
2023/10/04 11:25:16;;;;;;;11.68;3.92;;;21.10;94.20;;;;;;5044497;28;20017;-57
2023/10/04 11:27:43;;;;;;;12.68;4.53;;;20.80;93.10;;;;;;5035765;28;20024;-57
2023/10/04 11:30:11;;;;;;;12.85;3.92;;;21.60;92.60;;;;;;5046745;28;20032;-56
2023/10/04 11:32:40;;;;;;;11.60;3.85;;;21.30;92.50;;;;;;5045182;28;20024;-56
2023/10/04 11:35:11;;;;;;;10.50;3.72;;;21.20;92.70;;;;;;5042882;28;20466;-56
2023/10/04 11:37:43;;;;;;;9.98;3.95;;;20.90;93.00;;;;;;5042351;28;20020;-56
2023/10/04 11:40:11;;;;;;;9.23;4.25;;;20.80;93.90;;;;;;5043500;28;20761;-56
2023/10/04 11:42:38;;;;;;;8.70;4.50;;;20.70;92.60;;;;;;5043581;28;20502;-56
2023/10/04 11:45:17;;;;;;;10.52;4.20;;;20.30;92.90;;;;;;5044881;28;20510;-56
2023/10/04 11:47:43;;;;;;;10.32;4.13;;;20.10;93.80;;;;;;5047449;28;20045;-56
2023/10/04 11:50:10;;;;;;;10.25;4.43;;;20.20;92.90;;;;;;5046655;28;20414;-57
2023/10/04 11:52:36;;;;;;;8.02;3.90;;;20.00;93.70;;;;;;5048687;28;20017;-56
2023/10/04 11:55:03;;;;;;;12.57;4.82;;;20.50;93.50;;;;;;5050821;28;20029;-56
2023/10/04 11:57:37;;;;;;;11.95;4.40;;;21.60;91.70;;;;;;5049152;28;20032;-56
2023/10/04 12:00:25;;;;;;;8.45;4.20;;;21.50;91.30;;;;;;5045202;28;20036;-56
2023/10/04 12:02:52;;;;;;;7.90;3.80;;;21.80;91.00;;;;;;5041412;28;20048;-56
2023/10/04 12:05:18;;;;;;;10.15;4.15;;;21.60;91.30;;;;;;5048399;28;20452;-56
2023/10/04 12:07:43;;;;;;;12.13;4.60;;;21.70;91.30;;;;;;5048291;28;20056;-56
2023/10/04 12:10:09;;;;;;;9.32;4.22;;;21.40;90.70;;;;;;5049814;28;20025;-56
2023/10/04 12:12:37;;;;;;;15.60;5.15;;;21.20;91.40;;;;;;5047644;28;20018;-56
2023/10/04 12:15:07;;;;;;;10.63;4.93;;;20.90;91.50;;;;;;5048963;28;20017;-57
2023/10/04 12:17:34;;;;;;;16.98;4.65;;;20.20;92.10;;;;;;5047473;28;20054;-56
2023/10/04 12:20:04;;;;;;;12.90;4.90;;;19.40;92.80;;;;;;5046975;28;20028;-56
2023/10/04 12:22:30;;;;;;;12.63;5.50;;;19.40;93.40;;;;;;5048412;28;20090;-57
2023/10/04 12:24:55;;;;;;;10.15;5.10;;;19.90;92.90;;;;;;5048779;28;20452;-56
2023/10/04 12:27:22;;;;;;;11.43;4.93;;;19.70;92.70;;;;;;5050690;28;20079;-57
2023/10/04 12:29:47;;;;;;;9.25;4.57;;;19.50;93.40;;;;;;5049480;28;20454;-56
2023/10/04 12:32:14;;;;;;;12.77;4.55;;;19.10;93.90;;;;;;5039607;28;20096;-56
2023/10/04 12:34:40;;;;;;;12.95;5.13;;;19.20;94.50;;;;;;5043847;28;20253;-56
2023/10/04 12:37:06;;;;;;;11.18;4.95;;;19.70;94.90;;;;;;5050361;28;20465;-57
2023/10/04 12:39:32;;;;;;;12.52;4.43;;;20.00;93.00;;;;;;5046965;28;20033;-57
2023/10/04 12:42:01;;;;;;;13.27;4.72;;;20.20;93.20;;;;;;5047455;28;20490;-56
2023/10/04 12:44:27;;;;;;;8.52;4.30;;;20.20;92.20;;;;;;5046397;28;20028;-56
2023/10/04 12:46:53;;;;;;;10.95;4.45;;;20.60;93.30;;;;;;5042904;28;20029;-56
2023/10/04 12:49:19;;;;;;;10.60;4.30;;;20.30;91.80;;;;;;5042647;28;20021;-56
2023/10/04 12:51:48;;;;;;;11.80;4.53;;;20.30;91.80;;;;;;5043896;28;20066;-56